Time;durP1;ratioP1;P1;durP2;ratioP2;P2;SDS_P1;SDS_P2;PMS_P1;PMS_P2;Temp;Humidity;BMP_temperature;BMP_pressure;BME280_temperature;BME280_humidity;BME280_pressure;Samples;Min_cycle;Max_cycle;Signal;HPM_P1;HPM_P2
2021/10/09 00:00:55;;;;;;;1999.90;999.90;;;;;;;6.89;100.00;96230.53;5052336;28;20197;-68
2021/10/09 00:03:22;;;;;;;1999.90;999.90;;;;;;;6.94;100.00;96227.97;5051974;28;20227;-68
2021/10/09 00:05:50;;;;;;;1999.90;999.90;;;;;;;6.90;100.00;96235.44;5051033;28;20196;-68
2021/10/09 00:08:18;;;;;;;1999.90;999.90;;;;;;;6.98;100.00;96230.81;5031907;28;20307;-68
2021/10/09 00:10:46;;;;;;;1999.90;999.90;;;;;;;6.92;100.00;96232.63;5031547;28;20194;-68
2021/10/09 00:13:14;;;;;;;1999.90;999.90;;;;;;;6.92;99.22;96232.63;5032416;28;20579;-67
2021/10/09 00:15:41;;;;;;;1999.90;999.90;;;;;;;7.02;99.28;96237.06;5032158;28;20201;-68
2021/10/09 00:18:10;;;;;;;1999.90;999.90;;;;;;;7.05;99.54;96226.22;5032153;28;20202;-68
2021/10/09 00:20:37;;;;;;;1999.90;999.90;;;;;;;7.01;99.65;96227.75;5031938;28;20197;-68
2021/10/09 00:23:04;;;;;;;1999.90;999.90;;;;;;;7.05;100.00;96224.41;5031712;28;20218;-68
2021/10/09 00:25:31;;;;;;;1999.90;999.90;;;;;;;7.06;100.00;96227.78;5031859;28;20204;-68
2021/10/09 00:27:58;;;;;;;1999.90;999.90;;;;;;;7.07;100.00;96224.16;5031839;28;20703;-68
2021/10/09 00:30:26;;;;;;;1999.90;999.90;;;;;;;7.05;100.00;96221.81;5031620;28;20460;-68
2021/10/09 00:32:53;;;;;;;1999.90;999.90;;;;;;;7.07;100.00;96216.41;5031471;28;20200;-68
2021/10/09 00:35:22;;;;;;;1999.90;999.90;;;;;;;7.03;100.00;96216.13;5030982;28;20208;-68
2021/10/09 00:37:49;;;;;;;1999.90;999.90;;;;;;;7.07;100.00;96209.44;5031464;28;20194;-68
2021/10/09 00:40:16;;;;;;;1999.90;999.90;;;;;;;7.09;100.00;96211.75;5031373;28;20217;-69
2021/10/09 00:42:43;;;;;;;1999.90;999.90;;;;;;;7.02;100.00;96212.00;5031353;28;20201;-68
2021/10/09 00:45:10;;;;;;;1999.90;999.90;;;;;;;7.08;100.00;96205.78;5046212;28;20227;-69
2021/10/09 00:47:38;;;;;;;1999.90;999.90;;;;;;;7.08;100.00;96205.78;5051410;28;20205;-68
2021/10/09 00:50:06;;;;;;;1999.90;999.90;;;;;;;7.17;100.00;96193.19;5051080;28;20203;-68
2021/10/09 00:52:36;;;;;;;1999.90;999.90;;;;;;;7.16;100.00;96201.97;5051370;28;20201;-68
2021/10/09 00:55:05;;;;;;;1999.90;999.90;;;;;;;7.21;100.00;96204.56;5051422;28;20193;-68
2021/10/09 00:57:35;;;;;;;1999.90;999.90;;;;;;;7.25;100.00;96203.03;5051349;28;20225;-68
2021/10/09 01:00:05;;;;;;;1999.90;999.90;;;;;;;7.21;99.60;96197.59;5050917;28;20204;-68
2021/10/09 01:02:36;;;;;;;1999.90;999.90;;;;;;;7.09;99.21;96204.00;5051033;28;20228;-68
2021/10/09 01:05:04;;;;;;;1999.90;999.90;;;;;;;7.11;100.00;96201.94;5050933;28;20205;-68
2021/10/09 01:07:31;;;;;;;1999.90;999.90;;;;;;;7.19;99.76;96199.63;5050523;28;20239;-68
2021/10/09 01:10:00;;;;;;;1999.90;999.90;;;;;;;7.30;99.93;96197.88;5050771;28;20201;-68
2021/10/09 01:12:28;;;;;;;1999.90;999.90;;;;;;;7.24;100.00;96199.66;5050977;28;20276;-68
2021/10/09 01:14:55;;;;;;;1999.90;999.90;;;;;;;7.30;100.00;96200.44;5050553;28;20193;-68
2021/10/09 01:17:23;;;;;;;1999.90;999.90;;;;;;;7.34;100.00;96198.91;5050677;28;20205;-69
2021/10/09 01:19:50;;;;;;;1999.90;999.90;;;;;;;7.27;100.00;96201.72;5050828;28;20201;-69
2021/10/09 01:22:18;;;;;;;1999.90;999.90;;;;;;;7.23;100.00;96208.44;5050591;28;20209;-68
2021/10/09 01:24:45;;;;;;;1999.90;999.90;;;;;;;7.23;100.00;96203.25;5050296;28;20830;-67
2021/10/09 01:27:17;;;;;;;1999.90;999.90;;;;;;;7.24;100.00;96194.50;5050850;28;20219;-67
2021/10/09 01:29:44;;;;;;;1999.90;999.90;;;;;;;7.24;100.00;96196.28;5050649;28;20197;-67
2021/10/09 01:32:12;;;;;;;1999.90;999.90;;;;;;;7.27;100.00;96190.63;5050482;28;20203;-69
2021/10/09 01:34:39;;;;;;;1999.90;999.90;;;;;;;7.24;100.00;96201.47;5050180;28;20661;-68
2021/10/09 01:37:06;;;;;;;1999.90;999.90;;;;;;;7.20;99.06;96197.84;5050590;28;20640;-68
2021/10/09 01:39:35;;;;;;;1999.90;999.90;;;;;;;7.16;98.74;96194.22;5050493;28;20208;-67
2021/10/09 01:42:02;;;;;;;1999.90;999.90;;;;;;;7.18;98.73;96192.13;5050159;28;20206;-68
2021/10/09 01:44:29;;;;;;;1999.90;999.90;;;;;;;7.08;99.87;96189.50;5050275;28;20225;-68
2021/10/09 01:46:56;;;;;;;1999.90;999.90;;;;;;;7.01;99.65;96189.00;5049382;28;20204;-68
2021/10/09 01:49:23;;;;;;;1999.90;999.90;;;;;;;7.09;99.99;96193.66;5050287;28;20201;-68
2021/10/09 01:51:50;;;;;;;1999.90;999.90;;;;;;;7.08;98.98;96187.72;5050109;28;20963;-67
2021/10/09 01:54:18;;;;;;;1999.90;999.90;;;;;;;7.02;98.86;96182.78;5049890;28;20208;-68
2021/10/09 01:56:46;;;;;;;1999.90;999.90;;;;;;;6.98;99.65;96179.13;5050180;28;20201;-67
2021/10/09 01:59:13;;;;;;;1999.90;999.90;;;;;;;7.02;100.00;96185.38;5049888;28;20197;-67
2021/10/09 02:01:40;;;;;;;1999.90;999.90;;;;;;;7.04;100.00;96185.88;5048143;28;20201;-67
2021/10/09 02:04:08;;;;;;;1999.90;999.90;;;;;;;6.94;100.00;96186.63;5049250;28;20228;-67
2021/10/09 02:06:35;;;;;;;1999.90;999.90;;;;;;;7.00;100.00;96182.25;5049153;28;20236;-68
2021/10/09 02:09:03;;;;;;;1999.90;999.90;;;;;;;6.95;100.00;96184.81;5049458;28;20190;-67
2021/10/09 02:11:37;;;;;;;1999.90;999.90;;;;;;;6.89;100.00;96182.22;5049167;28;20197;-68
2021/10/09 02:14:14;;;;;;;1999.90;999.90;;;;;;;6.93;100.00;96182.50;5049914;28;20739;-68
2021/10/09 02:17:07;;;;;;;1999.90;999.90;;;;;;;6.84;100.00;96186.59;5049665;28;20185;-68
2021/10/09 02:25:26;;;;;;;1999.90;999.90;;;;;;;6.86;100.00;96182.75;5018327;28;20290;-68
2021/10/09 02:27:54;;;;;;;1999.90;999.90;;;;;;;6.82;100.00;96181.66;5049352;28;20193;-68
2021/10/09 02:30:23;;;;;;;1999.90;999.90;;;;;;;6.87;100.00;96179.09;5049403;28;20208;-68
2021/10/09 02:32:50;;;;;;;1999.90;999.90;;;;;;;6.85;100.00;96186.34;5049589;28;20593;-67
2021/10/09 02:35:17;;;;;;;1999.90;999.90;;;;;;;6.86;100.00;96187.91;5049278;28;20203;-68
2021/10/09 02:37:44;;;;;;;1999.90;999.90;;;;;;;6.81;100.00;96174.97;5048139;28;20613;-68
2021/10/09 02:40:12;;;;;;;1999.90;999.90;;;;;;;6.81;100.00;96176.78;5049440;28;20227;-68
2021/10/09 02:42:39;;;;;;;1999.90;999.90;;;;;;;6.75;100.00;96180.34;5049369;28;20197;-68
2021/10/09 02:45:07;;;;;;;1999.90;999.90;;;;;;;6.77;100.00;96184.25;5049298;28;20270;-68
2021/10/09 02:47:36;;;;;;;1999.90;999.90;;;;;;;6.69;100.00;96178.75;5049175;28;20205;-68
2021/10/09 02:50:04;;;;;;;1999.90;999.90;;;;;;;6.69;100.00;96183.94;5049118;28;20668;-68
2021/10/09 02:52:31;;;;;;;1999.90;999.90;;;;;;;6.72;100.00;96175.69;5049078;28;20211;-69
2021/10/09 02:54:58;;;;;;;1999.90;999.90;;;;;;;6.72;100.00;96170.53;5049398;28;20202;-69
2021/10/09 02:57:26;;;;;;;1999.90;999.90;;;;;;;6.62;100.00;96173.84;5048979;28;20707;-72
2021/10/09 02:59:53;;;;;;;1999.90;999.90;;;;;;;6.61;100.00;96161.97;5049156;28;20281;-68
2021/10/09 03:02:20;;;;;;;1999.90;999.90;;;;;;;6.61;100.00;96167.13;5048855;28;20206;-69
2021/10/09 03:04:48;;;;;;;1999.90;999.90;;;;;;;6.55;100.00;96168.13;5048796;28;20228;-68
2021/10/09 03:07:15;;;;;;;1999.90;999.90;;;;;;;6.51;100.00;96167.06;5048609;28;20252;-68
2021/10/09 03:09:43;;;;;;;1999.90;999.90;;;;;;;6.51;100.00;96169.66;5048799;28;20291;-69
2021/10/09 03:12:10;;;;;;;1999.90;999.90;;;;;;;6.55;100.00;96167.34;5048840;28;20203;-69
2021/10/09 03:14:37;;;;;;;1999.90;999.90;;;;;;;6.53;100.00;96165.00;5048705;28;20878;-68
2021/10/09 03:17:04;;;;;;;1999.90;999.90;;;;;;;6.47;100.00;96173.78;5048708;28;20559;-68
2021/10/09 03:19:31;;;;;;;1999.90;999.90;;;;;;;6.54;100.00;96179.47;5048672;28;20896;-68
2021/10/09 03:22:00;;;;;;;1999.90;999.90;;;;;;;6.57;100.00;96173.03;5049072;28;20213;-68
2021/10/09 03:24:27;;;;;;;1999.90;999.90;;;;;;;6.49;100.00;96177.63;5048843;28;20234;-68
2021/10/09 03:26:54;;;;;;;1999.90;999.90;;;;;;;6.57;100.00;96178.22;5048558;28;20228;-68
2021/10/09 03:29:22;;;;;;;1999.90;999.90;;;;;;;6.49;100.00;96172.47;5048940;28;20204;-68
2021/10/09 03:31:49;;;;;;;1999.90;999.90;;;;;;;6.53;100.00;96171.97;5048711;28;20201;-68
2021/10/09 03:34:16;;;;;;;1999.90;999.90;;;;;;;6.51;100.00;96164.50;5048653;28;20212;-68
2021/10/09 03:36:43;;;;;;;1999.90;999.90;;;;;;;6.55;100.00;96173.28;5048548;28;20582;-69
2021/10/09 03:39:15;;;;;;;1999.90;999.90;;;;;;;6.62;100.00;96181.59;5048711;28;20309;-69
2021/10/09 03:41:45;;;;;;;1999.90;999.90;;;;;;;6.56;100.00;96182.59;5048791;28;20255;-68
2021/10/09 03:44:13;;;;;;;1999.90;999.90;;;;;;;6.60;100.00;96178.47;5048740;28;20209;-68
2021/10/09 03:46:43;;;;;;;1999.90;999.90;;;;;;;6.47;100.00;96182.28;5048514;28;20201;-68
2021/10/09 03:49:21;;;;;;;1999.90;999.90;;;;;;;6.48;100.00;96181.25;5048431;28;20193;-68
2021/10/09 03:54:34;;;;;;;1999.90;999.90;;;;;;;6.56;100.00;96186.97;5048503;28;20207;-68
2021/10/09 03:57:01;;;;;;;1999.90;999.90;;;;;;;6.55;100.00;96185.41;5048726;28;20204;-68
2021/10/09 03:59:28;;;;;;;1999.90;999.90;;;;;;;6.54;100.00;96179.47;5048668;28;20219;-69
2021/10/09 04:01:56;;;;;;;1999.90;999.90;;;;;;;6.49;100.00;96177.63;5048585;28;20278;-68
2021/10/09 04:04:23;;;;;;;1999.90;999.90;;;;;;;6.56;100.00;96174.84;5048234;28;20236;-68
2021/10/09 04:06:50;;;;;;;1999.90;999.90;;;;;;;6.60;100.00;96178.47;5048336;28;20268;-69
2021/10/09 04:09:17;;;;;;;1999.90;999.90;;;;;;;6.53;100.00;96177.91;5049176;28;20203;-69
2021/10/09 04:11:46;;;;;;;1999.90;999.90;;;;;;;6.61;100.00;96176.69;5052016;28;20593;-67
2021/10/09 04:14:13;;;;;;;1999.90;999.90;;;;;;;6.70;100.00;96177.75;5052253;28;20200;-68
2021/10/09 04:16:40;;;;;;;1999.90;999.90;;;;;;;6.64;100.00;96182.09;5052216;28;20251;-68
2021/10/09 04:19:08;;;;;;;1999.90;999.90;;;;;;;6.69;100.00;96184.72;5051810;28;20659;-68
2021/10/09 04:21:35;;;;;;;1999.90;999.90;;;;;;;6.78;100.00;96178.03;5052068;28;20201;-67
2021/10/09 04:24:02;;;;;;;1999.90;999.90;;;;;;;6.89;100.00;96176.28;5051622;28;20217;-66
2021/10/09 04:26:29;;;;;;;1999.90;999.90;;;;;;;6.84;100.00;96181.41;5051634;28;20747;-69
2021/10/09 04:28:58;;;;;;;1999.90;999.90;;;;;;;6.84;100.00;96184.00;5051511;28;20205;-67
2021/10/09 04:31:25;;;;;;;1999.90;999.90;;;;;;;6.81;100.00;96182.72;5051537;28;20554;-68
2021/10/09 04:33:52;;;;;;;1999.90;999.90;;;;;;;6.79;100.00;96184.75;5051778;28;20280;-68
2021/10/09 04:36:19;;;;;;;1999.90;999.90;;;;;;;6.81;100.00;96184.53;5051465;28;20194;-69
2021/10/09 04:38:46;;;;;;;1999.90;999.90;;;;;;;6.89;100.00;96186.59;5051304;28;20204;-68
2021/10/09 04:41:13;;;;;;;1999.90;999.90;;;;;;;6.90;100.00;96180.41;5050490;28;20201;-68
2021/10/09 04:43:41;;;;;;;1999.90;999.90;;;;;;;6.90;100.00;96190.75;5051616;28;20203;-68
2021/10/09 04:46:09;;;;;;;1999.90;999.90;;;;;;;6.99;100.00;96191.03;5051359;28;20736;-68
2021/10/09 04:48:37;;;;;;;1999.90;999.90;;;;;;;6.95;99.94;96190.00;5051584;28;20582;-68
2021/10/09 04:51:04;;;;;;;1999.90;999.90;;;;;;;6.99;100.00;96185.88;5051096;28;20240;-68
2021/10/09 04:53:31;;;;;;;1999.90;999.90;;;;;;;7.01;100.00;96189.00;5051200;28;20251;-68
2021/10/09 04:55:58;;;;;;;1999.90;999.90;;;;;;;7.03;99.85;96194.66;5051321;28;20200;-68
2021/10/09 04:58:26;;;;;;;1999.90;999.90;;;;;;;7.11;100.00;96200.13;5051077;28;20197;-68
2021/10/09 05:00:53;;;;;;;1999.90;999.90;;;;;;;7.00;100.00;96198.53;5050963;28;20204;-69
2021/10/09 05:03:21;;;;;;;1999.90;999.90;;;;;;;7.05;100.00;96200.38;5051186;28;20205;-69
2021/10/09 05:05:48;;;;;;;1999.90;999.90;;;;;;;7.06;100.00;96207.09;5051052;28;20319;-69
2021/10/09 05:08:16;;;;;;;1999.90;999.90;;;;;;;7.17;100.00;96208.69;5050750;28;20646;-68
2021/10/09 05:10:44;;;;;;;1999.90;999.90;;;;;;;7.13;99.62;96199.88;5050761;28;20228;-69
2021/10/09 05:13:12;;;;;;;1999.90;999.90;;;;;;;7.15;98.40;96197.81;5050720;28;20698;-69
2021/10/09 05:15:42;;;;;;;1999.90;999.90;;;;;;;7.23;96.08;96203.25;5051128;28;20219;-68
2021/10/09 05:18:09;;;;;;;1999.90;999.90;;;;;;;7.19;95.92;96207.41;5051597;28;20672;-69
2021/10/09 05:20:40;;;;;;;1999.90;999.90;;;;;;;7.25;95.56;96201.22;5050612;28;20203;-69
2021/10/09 05:23:07;;;;;;;1999.90;999.90;;;;;;;7.23;94.85;96208.44;5050829;28;20196;-68
2021/10/09 05:25:36;;;;;;;1999.90;999.90;;;;;;;7.17;96.31;96204.28;5050771;28;20263;-70
2021/10/09 05:28:06;;;;;;;1999.90;999.90;;;;;;;7.18;95.82;96205.06;5050541;28;20625;-68
2021/10/09 05:30:33;;;;;;;1999.90;999.90;;;;;;;7.22;95.57;96208.72;5050137;28;20200;-69
2021/10/09 05:33:12;;;;;;;1999.90;999.90;;;;;;;7.16;96.52;96212.31;5050659;28;20295;-68
2021/10/09 05:35:41;;;;;;;1999.90;999.90;;;;;;;7.23;95.53;96212.81;5050697;28;20188;-67
2021/10/09 05:38:08;;;;;;;1999.90;999.90;;;;;;;7.24;94.41;96214.38;5050241;28;20676;-67
2021/10/09 05:40:36;;;;;;;1999.90;999.90;;;;;;;7.31;94.92;96215.72;5050188;28;20201;-68
2021/10/09 05:43:03;;;;;;;1999.90;999.90;;;;;;;7.21;94.92;96222.66;5050356;28;20284;-69
2021/10/09 05:45:32;;;;;;;1999.90;999.90;;;;;;;7.30;95.70;96223.72;5050023;28;20900;-67
2021/10/09 05:48:00;;;;;;;1999.90;999.90;;;;;;;7.35;95.72;96223.72;5049996;28;20212;-68
2021/10/09 05:50:30;;;;;;;1999.90;999.90;;;;;;;7.38;95.66;96217.25;5050031;28;20212;-70
2021/10/09 05:53:08;;;;;;;1999.90;999.90;;;;;;;7.40;95.31;96225.56;5049918;28;20268;-68
2021/10/09 05:55:38;;;;;;;1999.90;999.90;;;;;;;7.42;95.47;96226.88;5050272;28;20185;-67
2021/10/09 05:58:09;;;;;;;1999.90;999.90;;;;;;;7.40;95.63;96233.31;5050292;28;20194;-68
2021/10/09 06:01:03;;;;;;;1999.90;999.90;;;;;;;7.27;96.00;96230.16;5049817;28;20197;-68
2021/10/09 06:42:32;;;;;;;1999.90;999.90;;;;;;;7.57;95.93;96260.50;5029374;28;20185;-67
2021/10/09 06:45:18;;;;;;;1999.90;999.90;;;;;;;7.60;96.59;96259.22;5029161;28;20218;-67
2021/10/09 06:47:48;;;;;;;1999.90;999.90;;;;;;;7.68;98.07;96253.53;5029059;28;20193;-67
2021/10/09 06:50:36;;;;;;;1999.90;999.90;;;;;;;7.70;96.87;96254.88;5029373;28;20193;-67
2021/10/09 07:01:18;;;;;;;1999.90;999.90;;;;;;;7.87;98.20;96262.38;5029114;28;20185;-69
2021/10/09 07:03:45;;;;;;;1999.90;999.90;;;;;;;7.96;96.91;96263.44;5028814;28;20198;-68
2021/10/09 07:06:15;;;;;;;1999.90;999.90;;;;;;;7.95;95.97;96268.88;5033270;28;20300;-68
2021/10/09 07:08:42;;;;;;;1999.90;999.90;;;;;;;7.92;96.21;96264.22;5048915;28;20189;-69
2021/10/09 07:11:10;;;;;;;1999.90;999.90;;;;;;;8.00;94.77;96258.53;5048768;28;20603;-69
2021/10/09 07:13:38;;;;;;;1999.90;999.90;;;;;;;7.93;94.89;96255.41;5048605;28;20205;-68
2021/10/09 07:16:06;;;;;;;1999.90;999.90;;;;;;;7.90;94.91;96261.88;5048641;28;20288;-69
2021/10/09 07:18:33;;;;;;;1999.90;999.90;;;;;;;7.82;95.90;96248.69;5048438;28;20201;-68
2021/10/09 07:21:00;;;;;;;1999.90;999.90;;;;;;;7.94;96.40;96254.38;5048851;28;20209;-68
2021/10/09 07:23:27;;;;;;;1999.90;999.90;;;;;;;8.06;96.22;96266.03;5048638;28;20196;-69
2021/10/09 07:25:54;;;;;;;1999.90;999.90;;;;;;;8.06;95.06;96275.63;5048864;28;20608;-68
2021/10/09 07:28:21;;;;;;;1999.90;999.90;;;;;;;8.02;94.44;96274.59;5048845;28;20816;-68
2021/10/09 07:30:50;;;;;;;1999.90;999.90;;;;;;;7.96;94.33;96278.19;5048519;28;20196;-68
2021/10/09 07:33:17;;;;;;;1999.90;999.90;;;;;;;8.05;95.47;96276.66;5048522;28;20588;-68
2021/10/09 07:35:45;;;;;;;1999.90;999.90;;;;;;;8.01;95.13;96280.78;5048826;28;20685;-68
2021/10/09 07:38:14;;;;;;;1999.90;999.90;;;;;;;8.15;95.04;96281.84;5048854;28;20193;-67
2021/10/09 07:40:41;;;;;;;1999.90;999.90;;;;;;;8.25;95.79;96274.06;5048494;28;20820;-68
2021/10/09 07:43:08;;;;;;;1999.90;999.90;;;;;;;8.19;94.79;96278.47;5048518;28;20197;-70
2021/10/09 07:45:35;;;;;;;1999.90;999.90;;;;;;;8.18;94.32;96282.09;5051783;28;20228;-68
2021/10/09 07:48:04;;;;;;;1999.90;999.90;;;;;;;8.21;94.31;96283.41;5052467;28;20209;-67
2021/10/09 07:50:31;;;;;;;1999.90;999.90;;;;;;;8.20;94.79;96277.44;5052660;28;20201;-68
2021/10/09 07:52:59;;;;;;;1999.90;999.90;;;;;;;8.21;94.63;96273.03;5052158;28;20212;-67
2021/10/09 07:55:26;;;;;;;1999.90;999.90;;;;;;;8.33;94.34;96275.38;5052136;28;20697;-68
2021/10/09 07:57:53;;;;;;;1999.90;999.90;;;;;;;8.32;93.85;96274.59;5052093;28;20201;-69
2021/10/09 08:00:20;;;;;;;1999.90;999.90;;;;;;;8.19;94.25;96277.69;5052338;28;20231;-68
2021/10/09 08:02:48;;;;;;;1999.90;999.90;;;;;;;8.24;92.96;96280.28;5051932;28;20198;-68
2021/10/09 08:05:17;;;;;;;1999.90;999.90;;;;;;;8.16;93.58;96273.81;5052271;28;20225;-69
2021/10/09 08:07:45;;;;;;;1999.90;999.90;;;;;;;8.25;92.87;96279.25;5051776;28;20229;-68
2021/10/09 08:10:12;;;;;;;1999.90;999.90;;;;;;;8.36;93.78;96283.44;5051810;28;20193;-68
2021/10/09 08:12:39;;;;;;;1999.90;999.90;;;;;;;8.37;90.82;96286.81;5052182;28;20201;-68
2021/10/09 08:15:07;;;;;;;1999.90;999.90;;;;;;;8.35;91.04;96284.47;5052175;28;20231;-69
2021/10/09 08:17:35;;;;;;;1999.90;999.90;;;;;;;8.22;90.59;96292.69;5052098;28;20208;-68
2021/10/09 08:20:03;;;;;;;1999.90;999.90;;;;;;;8.19;90.58;96298.41;5051913;28;20208;-69
2021/10/09 08:22:34;;;;;;;1999.90;999.90;;;;;;;8.25;91.58;96292.19;5052052;28;20198;-68
2021/10/09 08:25:20;;;;;;;1999.90;999.90;;;;;;;8.20;91.57;96295.56;5051666;28;20194;-68
2021/10/09 08:28:03;;;;;;;1999.90;999.90;;;;;;;8.22;93.18;96300.47;5051587;28;20185;-68
2021/10/09 08:36:13;;;;;;;1999.90;999.90;;;;;;;8.47;91.19;96297.91;5020692;28;20200;-68
2021/10/09 08:38:51;;;;;;;1999.90;999.90;;;;;;;8.43;91.52;96293.53;5051509;28;20276;-68
2021/10/09 08:41:19;;;;;;;1999.90;999.90;;;;;;;8.42;91.48;96297.91;5051386;28;20648;-68
2021/10/09 08:43:49;;;;;;;1999.90;999.90;;;;;;;8.51;90.26;96304.16;5050541;28;20197;-68
2021/10/09 08:46:16;;;;;;;1999.90;999.90;;;;;;;8.53;88.41;96302.06;5051485;28;20331;-68
2021/10/09 08:48:47;;;;;;;1999.90;999.90;;;;;;;8.40;89.76;96310.38;5051097;28;20746;-68
2021/10/09 08:51:14;;;;;;;1999.90;999.90;;;;;;;8.27;90.45;96308.25;5051653;28;20231;-68
2021/10/09 08:53:44;;;;;;;1999.90;999.90;;;;;;;8.36;92.02;96314.50;5051430;28;20204;-68
2021/10/09 08:56:27;;;;;;;1999.90;999.90;;;;;;;8.47;89.74;96316.03;5050723;28;20194;-68
2021/10/09 08:59:06;;;;;;;1999.90;999.90;;;;;;;8.44;89.36;96316.56;5051427;28;20216;-68
2021/10/09 09:01:40;;;;;;;1999.90;999.90;;;;;;;8.49;88.68;96310.63;5051397;28;20181;-68
2021/10/09 09:04:14;;;;;;;1999.90;999.90;;;;;;;8.38;89.15;96309.84;5050892;28;20190;-68
2021/10/09 09:07:07;;;;;;;1999.90;999.90;;;;;;;8.28;88.84;96307.22;5050598;28;20273;-70
2021/10/09 09:26:24;;;;;;;1999.90;999.90;;;;;;;8.76;88.07;96308.53;5050516;28;20211;-68
2021/10/09 09:32:05;;;;;;;1999.90;999.90;;;;;;;8.81;88.99;96299.97;5050464;28;20192;-69
2021/10/09 09:34:48;;;;;;;1999.90;999.90;;;;;;;8.93;88.58;96303.06;5050380;28;20189;-69
2021/10/09 09:37:40;;;;;;;1999.90;999.90;;;;;;;9.21;89.05;96302.50;5050368;28;20638;-67
2021/10/09 09:40:09;;;;;;;1999.90;999.90;;;;;;;9.30;89.40;96303.50;5050493;28;20220;-68
2021/10/09 09:42:45;;;;;;;1999.90;999.90;;;;;;;9.23;86.70;96302.97;5045430;28;20201;-67
2021/10/09 09:45:13;;;;;;;1999.90;999.90;;;;;;;9.21;88.11;96305.09;5044401;28;20212;-67
2021/10/09 09:47:42;;;;;;;1999.90;999.90;;;;;;;9.39;89.83;96301.91;5050308;28;20225;-68
2021/10/09 09:50:11;;;;;;;1999.90;999.90;;;;;;;9.28;89.33;96315.94;5050073;28;20226;-68
2021/10/09 09:52:39;;;;;;;1999.90;999.90;;;;;;;9.36;90.45;96312.81;5049887;28;20197;-67
2021/10/09 09:55:10;;;;;;;1999.90;999.90;;;;;;;9.35;91.75;96310.47;5049893;28;20726;-68
2021/10/09 09:57:38;;;;;;;1999.90;999.90;;;;;;;9.39;90.23;96306.31;5050044;28;20295;-68
2021/10/09 10:00:09;;;;;;;1999.90;999.90;;;;;;;9.31;91.92;96304.28;5049647;28;20201;-68
2021/10/09 10:02:43;;;;;;;1999.90;999.90;;;;;;;9.25;92.50;96300.13;5050042;28;20189;-68
2021/10/09 10:05:12;;;;;;;1999.90;999.90;;;;;;;9.06;92.64;96308.50;5050225;28;20190;-68
2021/10/09 10:07:39;;;;;;;1999.90;999.90;;;;;;;8.95;92.88;96319.13;5046286;28;20237;-68
2021/10/09 10:10:09;;;;;;;1999.90;999.90;;;;;;;9.08;94.69;96321.19;5050037;28;20216;-68
2021/10/09 10:12:38;;;;;;;1999.90;999.90;;;;;;;8.91;93.07;96312.94;5049959;28;20205;-68
2021/10/09 10:15:09;;;;;;;1999.90;999.90;;;;;;;8.87;93.71;96315.25;5049651;28;20201;-68
2021/10/09 10:17:37;;;;;;;1999.90;999.90;;;;;;;8.81;94.55;96312.94;5049604;28;20189;-67
2021/10/09 10:20:06;;;;;;;1999.90;999.90;;;;;;;8.69;94.11;96308.03;5049474;28;20262;-68
2021/10/09 10:22:58;;;;;;;1999.90;999.90;;;;;;;8.69;94.73;96315.00;5049795;28;20631;-68
2021/10/09 10:25:34;;;;;;;1999.90;999.90;;;;;;;8.69;94.91;96317.59;5049390;28;20189;-68
2021/10/09 10:28:03;;;;;;;1999.90;999.90;;;;;;;8.79;95.56;96308.00;5049304;28;20192;-68
2021/10/09 10:30:33;;;;;;;1999.90;999.90;;;;;;;8.92;95.49;96304.88;5049521;28;20559;-68
2021/10/09 10:33:29;;;;;;;1999.90;999.90;;;;;;;9.15;94.79;96305.34;5049130;28;20196;-68
2021/10/09 10:35:56;;;;;;;1999.90;999.90;;;;;;;9.23;93.50;96302.97;5049166;28;20193;-69
2021/10/09 10:38:54;;;;;;;1999.90;999.90;;;;;;;9.56;94.20;96298.22;5049487;28;20201;-68
2021/10/09 10:41:40;;;;;;;1999.90;999.90;;;;;;;9.75;92.04;96297.34;5049054;28;20225;-68
2021/10/09 10:44:09;;;;;;;1999.90;999.90;;;;;;;10.02;90.21;96309.09;5049444;28;20213;-68
2021/10/09 10:46:45;;;;;;;1999.90;999.90;;;;;;;10.15;88.84;96304.09;5048845;28;20726;-68
2021/10/09 10:49:20;;;;;;;1999.90;999.90;;;;;;;9.94;87.43;96306.06;5048655;28;20180;-67
2021/10/09 10:54:35;;;;;;;1999.90;999.90;;;;;;;9.87;88.91;96309.97;5048701;28;20213;-68
2021/10/09 10:57:20;;;;;;;1999.90;999.90;;;;;;;9.78;89.33;96303.78;5049260;28;20247;-68
2021/10/09 10:59:55;;;;;;;1999.90;999.90;;;;;;;9.64;90.58;96297.63;5049226;28;20638;-68
2021/10/09 11:02:25;;;;;;;1999.90;999.90;;;;;;;9.74;90.61;96297.59;5049249;28;20189;-68
2021/10/09 11:04:54;;;;;;;1999.90;999.90;;;;;;;9.96;87.16;96305.78;5048621;28;20572;-68
2021/10/09 11:07:26;;;;;;;1999.90;999.90;;;;;;;9.88;86.07;96308.94;5048380;28;20232;-68
2021/10/09 11:09:54;;;;;;;1999.90;999.90;;;;;;;10.04;86.58;96300.03;5048925;28;20220;-68
2021/10/09 11:12:27;;;;;;;1999.90;999.90;;;;;;;10.20;85.45;96311.91;5048625;28;20284;-68
2021/10/09 11:15:04;;;;;;;1999.90;999.90;;;;;;;10.22;86.65;96309.78;5048895;28;20251;-68
2021/10/09 11:17:37;;;;;;;1999.90;999.90;;;;;;;10.05;85.35;96306.78;5049378;28;20228;-68
2021/10/09 11:20:07;;;;;;;1999.90;999.90;;;;;;;10.04;85.51;96313.00;5052906;28;20884;-67
2021/10/09 11:22:46;;;;;;;1999.90;999.90;;;;;;;9.94;86.15;96311.25;5052909;28;20204;-68
2021/10/09 11:25:29;;;;;;;1999.90;999.90;;;;;;;9.80;87.03;96306.91;5053101;28;20690;-67
2021/10/09 11:27:58;;;;;;;1999.90;999.90;;;;;;;9.60;87.67;96299.22;5053014;28;20209;-67
2021/10/09 11:30:26;;;;;;;1999.90;999.90;;;;;;;9.46;88.30;96299.03;5052919;28;20196;-67
2021/10/09 11:32:56;;;;;;;1999.90;999.90;;;;;;;9.44;88.18;96296.69;5052824;28;20262;-67
2021/10/09 11:35:36;;;;;;;1999.90;999.90;;;;;;;9.36;89.65;96294.66;5052928;28;20217;-68
2021/10/09 11:38:05;;;;;;;1999.90;999.90;;;;;;;9.46;88.78;96291.25;5052546;28;20223;-69
2021/10/09 11:40:37;;;;;;;1999.90;999.90;;;;;;;9.40;88.85;96293.09;5052690;28;20207;-68
2021/10/09 11:43:13;;;;;;;1999.90;999.90;;;;;;;9.35;87.67;96287.13;5052317;28;20597;-69
2021/10/09 11:45:50;;;;;;;1999.90;999.90;;;;;;;9.33;88.52;96287.38;5052372;28;20191;-68
2021/10/09 11:54:07;;;;;;;1999.90;999.90;;;;;;;9.26;89.60;96296.50;5052312;28;20265;-68
2021/10/09 11:56:43;;;;;;;1999.90;999.90;;;;;;;9.38;88.66;96294.38;5052602;28;20178;-67
2021/10/09 11:59:11;;;;;;;1999.90;999.90;;;;;;;9.36;88.91;96296.47;5052612;28;20203;-67
2021/10/09 12:01:43;;;;;;;1999.90;999.90;;;;;;;9.32;89.44;96298.81;5052518;28;20227;-67
2021/10/09 12:04:19;;;;;;;1999.90;999.90;;;;;;;9.24;89.87;96298.56;5052336;28;20243;-68
2021/10/09 12:06:47;;;;;;;1999.90;999.90;;;;;;;9.29;90.11;96299.34;5043249;28;20228;-68
2021/10/09 12:09:17;;;;;;;1999.90;999.90;;;;;;;9.19;90.58;96296.78;5031864;28;20197;-68
2021/10/09 12:11:44;;;;;;;1999.90;999.90;;;;;;;9.13;90.89;96295.22;5032323;28;20293;-67
2021/10/09 12:14:12;;;;;;;1999.90;999.90;;;;;;;9.20;90.90;96293.16;5031860;28;20255;-67
2021/10/09 12:16:42;;;;;;;1999.90;999.90;;;;;;;9.06;92.40;96300.72;5031960;28;20662;-69
2021/10/09 12:19:10;;;;;;;1999.90;999.90;;;;;;;9.00;92.90;96295.78;5031826;28;20255;-68
2021/10/09 12:21:41;;;;;;;1999.90;999.90;;;;;;;9.11;92.22;96286.97;5031789;28;20210;-68
2021/10/09 12:24:16;;;;;;;1999.90;999.90;;;;;;;9.01;93.45;96289.56;5032075;28;20640;-68
2021/10/09 12:26:43;;;;;;;1999.90;999.90;;;;;;;9.02;93.87;96297.06;5031624;28;20324;-68
2021/10/09 12:29:14;;;;;;;1999.90;999.90;;;;;;;8.96;94.04;96294.78;5031617;28;20616;-68
2021/10/09 12:31:47;;;;;;;1999.90;999.90;;;;;;;8.90;93.69;96296.59;5031015;28;20186;-67
2021/10/09 12:34:33;;;;;;;1999.90;999.90;;;;;;;8.91;94.64;96294.78;5031670;28;20190;-68
2021/10/09 12:37:13;;;;;;;1999.90;999.90;;;;;;;8.99;94.82;96294.22;5031985;28;20641;-69
2021/10/09 12:39:41;;;;;;;1999.90;999.90;;;;;;;9.00;95.65;96304.34;5031935;28;20182;-68
2021/10/09 12:42:08;;;;;;;1999.90;999.90;;;;;;;8.94;95.54;96305.41;5031461;28;20674;-68